Articles

Rainfall Radar

Share
 
 
Share

Trim Flying Club goes to the Aran Islands

Learn to fly at Trim Flying Club

Rainfall Radar Now

Atlantic Charts Pressure - Today

Atlantic Charts Rainfall - Today

 
 

Atlantic Charts Pressure - Tomorrow

Sunrise Sunset

Click for Dublin, Ireland Forecast

Aviation WX Dublin EIDW

[source: ADDS]
METAR
EIDW 231300Z 12012KT 9999 FEW023 SCT045 15/05 Q1011 NOSIG =
TAF
TAF AMD EIDW 231306Z 2313/2412 14013KT 9999 FEW017 SCT025 PROB30 TEMPO 2313/2318 SHRA SCT018CB BKN020 BECMG 2316/2318 18010KT BECMG 2318/2320 22009KT BECMG 2323/2402 16006KT =